createdAt,value
2022-12-14T00:00:55.339Z,2.20
2022-12-14T00:03:29.216Z,2.26
2022-12-14T00:06:13.250Z,2.27
2022-12-14T00:08:48.005Z,2.21
2022-12-14T00:11:22.395Z,2.26
2022-12-14T00:14:01.254Z,2.18
2022-12-14T00:16:35.230Z,2.19
2022-12-14T00:19:07.205Z,2.10
2022-12-14T00:21:39.127Z,2.17
2022-12-14T00:24:11.021Z,2.18
2022-12-14T00:26:43.716Z,2.15
2022-12-14T00:29:15.614Z,2.11
2022-12-14T00:31:48.721Z,2.02
2022-12-14T00:34:20.914Z,2.03
2022-12-14T00:36:52.890Z,2.04
2022-12-14T00:39:24.788Z,2.08
2022-12-14T00:41:56.869Z,2.10
2022-12-14T00:44:28.827Z,2.14
2022-12-14T00:47:00.786Z,2.17
2022-12-14T00:49:32.761Z,2.18
2022-12-14T00:52:04.804Z,2.11
2022-12-14T00:54:36.828Z,2.19
2022-12-14T00:57:10.390Z,2.17
2022-12-14T00:59:42.321Z,2.16
2022-12-14T01:02:14.354Z,2.12
2022-12-14T01:04:46.355Z,2.17
2022-12-14T01:07:18.254Z,2.11
2022-12-14T01:09:50.319Z,2.13
2022-12-14T01:12:22.222Z,2.15
2022-12-14T01:14:54.185Z,2.16
2022-12-14T01:17:26.177Z,2.13
2022-12-14T01:19:58.086Z,2.13
2022-12-14T01:22:30.166Z,2.08
2022-12-14T01:25:02.107Z,2.04
2022-12-14T01:27:34.080Z,1.98
2022-12-14T01:30:06.719Z,2.03
2022-12-14T01:32:38.649Z,2.04
2022-12-14T01:35:10.549Z,2.04
2022-12-14T01:37:42.537Z,2.07
2022-12-14T01:40:14.483Z,2.06
2022-12-14T01:42:46.433Z,2.09
2022-12-14T01:45:22.284Z,1.90
2022-12-14T01:48:01.758Z,2.05
2022-12-14T01:50:37.868Z,2.04
2022-12-14T01:53:19.779Z,2.03
2022-12-14T01:55:56.488Z,2.03
2022-12-14T01:58:29.044Z,2.08
2022-12-14T02:01:02.792Z,2.07
2022-12-14T02:03:40.388Z,2.03
2022-12-14T02:06:27.350Z,1.94
2022-12-14T02:08:59.881Z,1.99
2022-12-14T02:12:00.686Z,1.94
2022-12-14T02:14:34.280Z,1.99
2022-12-14T02:17:10.871Z,1.97
2022-12-14T02:19:49.299Z,1.90
2022-12-14T02:23:06.766Z,1.87
2022-12-14T02:25:57.595Z,1.88
2022-12-14T02:28:49.309Z,1.91
2022-12-14T02:32:04.745Z,1.91
2022-12-14T02:35:09.765Z,1.88
2022-12-14T02:38:08.078Z,1.94
2022-12-14T02:41:13.575Z,1.86
2022-12-14T02:44:05.672Z,1.89
2022-12-14T02:47:22.549Z,1.85
2022-12-14T02:50:09.075Z,1.85
2022-12-14T02:52:59.132Z,1.83
2022-12-14T02:55:38.875Z,1.88
2022-12-14T02:58:36.716Z,1.88
2022-12-14T03:01:14.009Z,1.92
2022-12-14T03:03:46.500Z,1.87
2022-12-14T03:06:26.343Z,1.93
2022-12-14T03:09:18.310Z,1.95
2022-12-14T03:12:02.823Z,1.95
2022-12-14T03:14:40.671Z,1.98
2022-12-14T03:17:24.926Z,1.97
2022-12-14T03:20:11.602Z,1.83
2022-12-14T03:22:52.413Z,2.02
2022-12-14T03:25:38.551Z,2.04
2022-12-14T03:28:20.526Z,2.08
2022-12-14T03:31:06.937Z,1.99
2022-12-14T03:33:43.774Z,1.82
2022-12-14T03:36:27.464Z,1.99
2022-12-14T03:39:04.872Z,1.97
2022-12-14T03:42:17.304Z,1.98
2022-12-14T03:45:01.138Z,2.01
2022-12-14T03:48:14.158Z,2.01
2022-12-14T03:51:06.352Z,2.01
2022-12-14T03:54:07.921Z,2.04
2022-12-14T03:56:53.206Z,2.04
2022-12-14T04:00:01.551Z,2.01
2022-12-14T04:02:59.696Z,2.00
2022-12-14T04:06:03.707Z,1.94
2022-12-14T04:08:52.506Z,2.00
2022-12-14T04:11:52.909Z,2.02
2022-12-14T04:14:53.533Z,1.93
2022-12-14T04:17:54.671Z,2.02
2022-12-14T04:20:44.324Z,1.99
2022-12-14T04:23:52.149Z,2.04
2022-12-14T04:26:32.075Z,2.04
2022-12-14T04:29:36.490Z,1.88
2022-12-14T04:32:23.504Z,2.08
2022-12-14T04:35:05.475Z,2.08
2022-12-14T04:37:41.694Z,2.02
2022-12-14T04:40:32.277Z,2.05
2022-12-14T04:43:11.882Z,2.05
2022-12-14T04:45:57.951Z,2.07
2022-12-14T04:49:12.620Z,2.02
2022-12-14T04:52:05.231Z,2.07
2022-12-14T04:54:50.366Z,2.05
2022-12-14T04:57:36.795Z,2.06
2022-12-14T05:00:10.844Z,2.07
2022-12-14T05:03:19.811Z,2.08
2022-12-14T05:06:09.891Z,2.11
2022-12-14T05:09:16.767Z,2.07
2022-12-14T05:12:00.590Z,2.04
2022-12-14T05:14:42.355Z,2.17
2022-12-14T05:17:16.003Z,2.21
2022-12-14T05:19:50.481Z,2.18
2022-12-14T05:22:22.557Z,2.17
2022-12-14T05:24:54.614Z,2.21
2022-12-14T05:27:26.523Z,2.17
2022-12-14T05:29:58.448Z,2.24
2022-12-14T05:32:30.572Z,2.25
2022-12-14T05:35:03.739Z,2.28
2022-12-14T05:37:35.679Z,2.25
2022-12-14T05:40:08.995Z,2.25
2022-12-14T05:42:44.679Z,2.24
2022-12-14T05:45:17.916Z,2.29
2022-12-14T05:47:49.884Z,2.27
2022-12-14T05:50:21.796Z,2.27
2022-12-14T05:52:55.728Z,2.29
2022-12-14T05:55:27.613Z,2.28
2022-12-14T05:57:59.552Z,2.30
2022-12-14T06:00:31.508Z,2.29
2022-12-14T06:03:03.538Z,2.28
2022-12-14T06:05:36.006Z,2.28
2022-12-14T06:08:08.054Z,2.21
2022-12-14T06:10:39.989Z,2.19
2022-12-14T06:13:11.920Z,2.28
2022-12-14T06:15:43.859Z,2.29
2022-12-14T06:18:16.169Z,2.29
2022-12-14T06:20:48.117Z,2.25
2022-12-14T06:23:19.993Z,2.29
2022-12-14T06:25:56.395Z,2.24
2022-12-14T06:28:28.334Z,2.29
2022-12-14T06:31:00.525Z,2.32
2022-12-14T06:33:35.200Z,2.32
2022-12-14T06:36:07.509Z,2.36
2022-12-14T06:38:39.435Z,2.37
2022-12-14T06:41:11.516Z,2.38
2022-12-14T06:43:43.965Z,2.37
2022-12-14T06:46:19.927Z,2.44
2022-12-14T06:48:54.986Z,2.41
2022-12-14T06:51:26.924Z,2.36
2022-12-14T06:53:59.172Z,2.37
2022-12-14T06:56:31.108Z,2.37
2022-12-14T06:59:03.264Z,2.44
2022-12-14T07:01:36.900Z,2.45
2022-12-14T07:04:10.152Z,2.47
2022-12-14T07:06:42.173Z,2.29
2022-12-14T07:09:14.944Z,2.48
2022-12-14T07:11:50.098Z,2.40
2022-12-14T07:14:22.060Z,2.49
2022-12-14T07:16:53.973Z,2.46
2022-12-14T07:19:25.938Z,2.44
2022-12-14T07:21:57.884Z,2.45
2022-12-14T07:24:30.484Z,2.45
2022-12-14T07:27:02.494Z,2.43
2022-12-14T07:29:35.135Z,2.43
2022-12-14T07:32:07.303Z,2.40
2022-12-14T07:34:39.238Z,2.62
2022-12-14T07:37:13.282Z,2.44
2022-12-14T07:39:45.302Z,2.37
2022-12-14T07:42:17.206Z,2.32
2022-12-14T07:44:49.258Z,2.31
2022-12-14T07:47:21.200Z,2.33
2022-12-14T07:49:53.143Z,2.31
2022-12-14T07:52:25.148Z,2.26
2022-12-14T07:54:57.089Z,2.26
2022-12-14T07:57:28.966Z,2.31
2022-12-14T08:00:01.015Z,2.32
2022-12-14T08:02:33.099Z,2.30
2022-12-14T08:05:12.103Z,2.27
2022-12-14T08:07:44.833Z,2.27
2022-12-14T08:10:16.777Z,2.22
2022-12-14T08:12:50.468Z,2.22
2022-12-14T08:15:22.396Z,2.21
2022-12-14T08:17:54.675Z,2.24
2022-12-14T08:20:26.602Z,2.25
2022-12-14T08:22:58.576Z,2.26
2022-12-14T08:25:30.664Z,2.26
2022-12-14T08:28:02.653Z,2.25
2022-12-14T08:30:41.779Z,2.25
2022-12-14T08:33:13.883Z,2.25
2022-12-14T08:35:46.788Z,2.26
2022-12-14T08:38:18.734Z,2.25
2022-12-14T08:40:50.657Z,2.25
2022-12-14T08:43:25.055Z,2.21
2022-12-14T08:45:57.288Z,2.24
2022-12-14T08:48:29.357Z,2.26
2022-12-14T08:51:07.486Z,2.26
2022-12-14T08:53:40.128Z,2.23
2022-12-14T08:56:15.194Z,2.21
2022-12-14T08:58:47.633Z,2.21
2022-12-14T09:01:32.127Z,2.22
2022-12-14T09:04:08.590Z,2.22
2022-12-14T09:06:40.672Z,2.18
2022-12-14T09:09:16.501Z,2.16
2022-12-14T09:11:48.828Z,2.17
2022-12-14T09:14:21.466Z,2.22
2022-12-14T09:16:53.401Z,2.23
2022-12-14T09:19:25.424Z,2.17
2022-12-14T09:21:57.411Z,2.23
2022-12-14T09:24:29.677Z,2.20
2022-12-14T09:27:02.579Z,2.26
2022-12-14T09:29:34.886Z,2.33
2022-12-14T09:32:07.057Z,2.42
2022-12-14T09:34:39.017Z,2.44
2022-12-14T09:37:11.250Z,2.47
2022-12-14T09:39:43.452Z,2.69
2022-12-14T09:43:04.310Z,2.90
2022-12-14T09:45:50.618Z,3.20
2022-12-14T09:48:26.000Z,3.38
2022-12-14T09:50:58.535Z,3.38
2022-12-14T09:53:31.203Z,3.46
2022-12-14T09:56:17.381Z,3.70
2022-12-14T09:58:58.452Z,4.13
2022-12-14T10:02:13.900Z,4.66
2022-12-14T10:04:47.972Z,5.31
2022-12-14T10:07:34.251Z,5.79
2022-12-14T10:10:40.535Z,6.15
2022-12-14T10:13:44.837Z,6.55
2022-12-14T10:16:49.974Z,6.83
2022-12-14T10:19:56.513Z,7.11
2022-12-14T10:22:36.656Z,7.44
2022-12-14T10:25:20.449Z,7.68
2022-12-14T10:28:10.748Z,7.74
2022-12-14T10:30:44.685Z,7.86
2022-12-14T10:33:19.612Z,8.01
2022-12-14T10:35:52.802Z,8.26
2022-12-14T10:39:07.612Z,8.27
2022-12-14T10:41:51.437Z,8.28
2022-12-14T10:44:49.459Z,8.54
2022-12-14T10:47:44.751Z,8.62
2022-12-14T10:50:28.997Z,8.99
2022-12-14T10:53:05.882Z,9.15
2022-12-14T10:55:45.130Z,9.22
2022-12-14T10:58:17.131Z,9.46
2022-12-14T11:00:56.536Z,9.45
2022-12-14T11:03:29.207Z,9.51
2022-12-14T11:06:19.043Z,9.33
2022-12-14T11:08:51.437Z,9.49
2022-12-14T11:11:26.738Z,9.74
2022-12-14T11:14:14.749Z,9.91
2022-12-14T11:16:46.858Z,10.26
2022-12-14T11:19:23.702Z,10.50
2022-12-14T11:22:22.305Z,10.37
2022-12-14T11:24:54.732Z,9.99
2022-12-14T11:27:26.770Z,9.49
2022-12-14T11:29:59.016Z,9.49
2022-12-14T11:32:31.014Z,9.46
2022-12-14T11:35:03.065Z,9.52
2022-12-14T11:37:35.285Z,9.27
2022-12-14T11:40:24.415Z,9.06
2022-12-14T11:43:04.566Z,8.61
2022-12-14T11:45:37.271Z,8.90
2022-12-14T11:48:15.546Z,8.43
2022-12-14T11:50:49.883Z,8.06
2022-12-14T11:53:23.566Z,8.16
2022-12-14T11:55:59.878Z,8.20
2022-12-14T11:58:37.309Z,8.37
2022-12-14T12:01:16.268Z,8.75
2022-12-14T12:03:56.946Z,8.78
2022-12-14T12:06:30.847Z,8.35
2022-12-14T12:09:17.946Z,7.91
2022-12-14T12:11:50.184Z,7.62
2022-12-14T12:14:38.652Z,7.37
2022-12-14T12:17:37.349Z,7.14
2022-12-14T12:20:39.279Z,7.21
2022-12-14T12:23:19.512Z,7.25
2022-12-14T12:25:56.256Z,7.42
2022-12-14T12:28:36.506Z,7.64
2022-12-14T12:31:18.751Z,8.03
2022-12-14T12:34:02.150Z,8.46
2022-12-14T12:36:34.173Z,9.04
2022-12-14T12:39:27.499Z,8.96
2022-12-14T12:42:40.444Z,8.35
2022-12-14T12:45:21.258Z,8.21
2022-12-14T12:48:14.683Z,8.37
2022-12-14T12:50:53.521Z,8.57
2022-12-14T12:53:34.138Z,9.09
2022-12-14T12:56:17.491Z,9.34
2022-12-14T12:58:53.263Z,9.26
2022-12-14T13:01:35.039Z,9.27
2022-12-14T13:04:15.781Z,9.47
2022-12-14T13:07:18.751Z,9.25
2022-12-14T13:10:05.951Z,9.03
2022-12-14T13:13:21.609Z,9.13
2022-12-14T13:15:59.919Z,9.12
2022-12-14T13:18:59.739Z,9.25
2022-12-14T13:21:36.588Z,9.58
2022-12-14T13:24:20.057Z,9.92
2022-12-14T13:27:19.654Z,10.33
2022-12-14T13:30:26.108Z,11.00
2022-12-14T13:33:30.980Z,10.95
2022-12-14T13:36:49.856Z,11.15
2022-12-14T13:39:45.420Z,11.47
2022-12-14T13:42:37.996Z,11.96
2022-12-14T13:45:23.444Z,11.99
2022-12-14T13:47:58.088Z,11.23
2022-12-14T13:50:55.982Z,10.39
2022-12-14T13:53:41.971Z,9.65
2022-12-14T13:56:32.488Z,9.10
2022-12-14T13:59:30.010Z,8.51
2022-12-14T14:02:05.125Z,7.93
2022-12-14T14:04:37.173Z,7.68
2022-12-14T14:07:50.652Z,7.26
2022-12-14T14:10:39.171Z,6.96
2022-12-14T14:13:29.352Z,6.69
2022-12-14T14:19:09.031Z,6.36
2022-12-14T14:22:22.288Z,6.27
2022-12-14T14:25:53.424Z,6.06
2022-12-14T14:28:30.465Z,6.07
2022-12-14T14:31:04.075Z,6.03
2022-12-14T14:33:46.190Z,5.95
2022-12-14T14:36:25.982Z,5.88
2022-12-14T14:39:01.748Z,5.84
2022-12-14T14:41:43.777Z,5.74
2022-12-14T14:45:21.483Z,5.61
2022-12-14T14:48:00.509Z,5.61
2022-12-14T14:50:38.385Z,5.58
2022-12-14T14:53:17.910Z,5.56
2022-12-14T14:56:00.206Z,5.53
2022-12-14T14:58:39.497Z,5.49
2022-12-14T15:01:29.939Z,5.45
2022-12-14T15:04:16.964Z,5.42
2022-12-14T15:07:08.836Z,5.36
2022-12-14T15:09:48.115Z,5.32
2022-12-14T15:13:02.003Z,5.22
2022-12-14T15:15:44.630Z,5.23
2022-12-14T15:18:25.645Z,5.21
2022-12-14T15:21:05.292Z,5.16
2022-12-14T15:23:49.475Z,5.11
2022-12-14T15:26:28.811Z,5.04
2022-12-14T15:29:04.368Z,4.94
2022-12-14T15:31:40.842Z,4.96
2022-12-14T15:34:18.597Z,4.92
2022-12-14T15:36:51.879Z,4.86
2022-12-14T15:39:38.310Z,4.79
2022-12-14T15:42:15.221Z,4.68
2022-12-14T15:44:56.400Z,4.70
2022-12-14T15:47:30.912Z,4.67
2022-12-14T15:50:32.821Z,4.57
2022-12-14T15:53:21.965Z,4.55
2022-12-14T15:56:00.481Z,4.77
2022-12-14T15:58:40.848Z,4.49
2022-12-14T16:01:26.890Z,4.45
2022-12-14T16:04:05.210Z,4.32
2022-12-14T16:06:45.003Z,4.36
2022-12-14T16:09:32.399Z,4.25
2022-12-14T16:12:19.123Z,4.29
2022-12-14T16:14:59.106Z,4.29
2022-12-14T16:17:36.928Z,4.25
2022-12-14T16:20:08.831Z,4.23
2022-12-14T16:22:41.305Z,4.17
2022-12-14T16:25:20.132Z,4.14
2022-12-14T16:27:53.592Z,4.13
2022-12-14T16:30:34.065Z,4.12
2022-12-14T16:33:10.771Z,4.07
2022-12-14T16:35:45.063Z,4.04
2022-12-14T16:38:18.746Z,3.95
2022-12-14T16:41:00.049Z,3.95
2022-12-14T16:43:41.946Z,3.95
2022-12-14T16:46:17.482Z,3.91
2022-12-14T16:49:22.316Z,3.81
2022-12-14T16:52:33.203Z,3.79
2022-12-14T16:55:11.859Z,3.80
2022-12-14T16:57:58.696Z,3.75
2022-12-14T17:00:36.228Z,3.70
2022-12-14T17:03:25.665Z,3.69
2022-12-14T17:06:04.801Z,3.69
2022-12-14T17:08:36.870Z,3.65
2022-12-14T17:11:13.308Z,3.64
2022-12-14T17:13:45.390Z,3.63
2022-12-14T17:16:22.677Z,3.48
2022-12-14T17:18:54.900Z,3.61
2022-12-14T17:21:29.333Z,3.58
2022-12-14T17:24:01.770Z,3.54
2022-12-14T17:26:33.740Z,3.48
2022-12-14T17:29:16.411Z,3.31
2022-12-14T17:31:51.776Z,3.41
2022-12-14T17:34:28.285Z,3.36
2022-12-14T17:37:00.224Z,3.35
2022-12-14T17:39:35.717Z,3.34
2022-12-14T17:42:13.516Z,3.31
2022-12-14T17:44:54.352Z,3.13
2022-12-14T17:47:26.634Z,3.15
2022-12-14T17:49:58.765Z,3.16
2022-12-14T17:52:32.742Z,3.16
2022-12-14T17:55:05.219Z,3.15
2022-12-14T17:57:37.166Z,3.12
2022-12-14T18:00:34.831Z,3.11
2022-12-14T18:03:07.753Z,3.04
2022-12-14T18:05:48.131Z,3.04
2022-12-14T18:08:22.807Z,2.82
2022-12-14T18:11:02.989Z,2.93
2022-12-14T18:13:35.060Z,2.94
2022-12-14T18:16:10.384Z,2.89
2022-12-14T18:18:44.327Z,3.13
2022-12-14T18:21:29.592Z,2.90
2022-12-14T18:24:01.527Z,2.84
2022-12-14T18:26:33.418Z,2.82
2022-12-14T18:29:05.485Z,2.70
2022-12-14T18:31:38.661Z,2.76
2022-12-14T18:34:13.380Z,2.73
2022-12-14T18:36:45.485Z,2.72
2022-12-14T18:39:18.291Z,2.68
2022-12-14T18:41:50.233Z,2.52
2022-12-14T18:44:22.467Z,2.60
2022-12-14T18:46:54.434Z,2.58
2022-12-14T18:49:26.465Z,2.56
2022-12-14T18:51:58.438Z,2.53
2022-12-14T18:54:30.514Z,2.46
2022-12-14T18:57:02.518Z,2.39
2022-12-14T18:59:37.821Z,2.30
2022-12-14T19:02:15.814Z,2.33
2022-12-14T19:04:49.235Z,2.32
2022-12-14T19:07:21.248Z,2.30
2022-12-14T19:09:53.463Z,2.28
2022-12-14T19:12:25.469Z,2.27
2022-12-14T19:14:57.607Z,2.28
2022-12-14T19:17:29.569Z,2.28
2022-12-14T19:20:01.586Z,2.25
2022-12-14T19:22:33.506Z,2.21
2022-12-14T19:25:06.761Z,2.19
2022-12-14T19:28:15.583Z,2.17
2022-12-14T19:30:34.647Z,2.13
2022-12-14T19:33:06.777Z,2.08
2022-12-14T19:35:42.346Z,1.98
2022-12-14T19:38:16.387Z,2.04
2022-12-14T19:41:02.154Z,2.01
2022-12-14T19:43:35.235Z,1.99
2022-12-14T19:46:13.646Z,1.94
2022-12-14T19:48:45.783Z,1.92
2022-12-14T19:51:19.390Z,1.85
2022-12-14T19:53:52.881Z,1.88
2022-12-14T19:56:24.876Z,1.84
2022-12-14T19:59:03.494Z,1.82
2022-12-14T20:01:39.710Z,1.75
2022-12-14T20:04:17.093Z,1.75
2022-12-14T20:06:49.271Z,1.71
2022-12-14T20:09:21.298Z,1.66
2022-12-14T20:11:53.253Z,1.65
2022-12-14T20:14:25.215Z,1.62
2022-12-14T20:16:57.342Z,1.53
2022-12-14T20:19:29.289Z,1.60
2022-12-14T20:22:01.295Z,1.52
2022-12-14T20:24:33.409Z,1.33
2022-12-14T20:27:05.453Z,1.50
2022-12-14T20:29:37.770Z,1.52
2022-12-14T20:32:09.707Z,1.50
2022-12-14T20:34:42.224Z,1.48
2022-12-14T20:37:14.191Z,1.43
2022-12-14T20:39:46.136Z,1.42
2022-12-14T20:42:18.143Z,1.40
2022-12-14T20:44:50.170Z,1.43
2022-12-14T20:47:22.142Z,1.40
2022-12-14T20:49:54.084Z,1.36
2022-12-14T20:52:26.046Z,1.39
2022-12-14T20:54:58.022Z,1.39
2022-12-14T20:57:33.099Z,1.39
2022-12-14T21:00:06.395Z,1.32
2022-12-14T21:02:38.450Z,1.31
2022-12-14T21:05:10.601Z,1.27
2022-12-14T21:07:42.532Z,1.19
2022-12-14T21:10:14.543Z,1.13
2022-12-14T21:12:49.335Z,1.08
2022-12-14T21:15:21.250Z,1.11
2022-12-14T21:17:53.219Z,1.10
2022-12-14T21:20:25.182Z,1.08
2022-12-14T21:22:57.555Z,1.09
2022-12-14T21:25:29.549Z,1.11
2022-12-14T21:28:01.516Z,1.10
2022-12-14T21:30:33.522Z,1.14
2022-12-14T21:33:06.590Z,1.12
2022-12-14T21:35:40.547Z,1.14
2022-12-14T21:38:12.438Z,1.16
2022-12-14T21:41:14.150Z,1.12
2022-12-14T21:43:46.757Z,1.11
2022-12-14T21:46:19.951Z,1.09
2022-12-14T21:48:52.001Z,1.06
2022-12-14T21:51:24.126Z,1.00
2022-12-14T21:53:59.652Z,0.94
2022-12-14T21:56:51.536Z,0.98
2022-12-14T21:59:33.105Z,0.87
2022-12-14T22:02:20.388Z,0.87
2022-12-14T22:04:56.122Z,0.90
2022-12-14T22:07:33.857Z,0.82
2022-12-14T22:10:06.570Z,0.85
2022-12-14T22:12:38.488Z,0.87
2022-12-14T22:15:11.087Z,0.87
2022-12-14T22:17:43.162Z,0.86
2022-12-14T22:20:15.244Z,0.85
2022-12-14T22:22:47.229Z,0.88
2022-12-14T22:25:19.161Z,0.89
2022-12-14T22:27:51.192Z,0.86
2022-12-14T22:30:27.144Z,0.83
2022-12-14T22:33:01.911Z,0.83
2022-12-14T22:35:34.255Z,0.80
2022-12-14T22:38:06.666Z,0.75
2022-12-14T22:40:38.844Z,0.74
2022-12-14T22:43:10.701Z,0.66
2022-12-14T22:45:42.963Z,0.68
2022-12-14T22:48:14.979Z,0.67
2022-12-14T22:50:46.923Z,0.67
2022-12-14T22:53:19.024Z,0.68
2022-12-14T22:55:51.256Z,0.69
2022-12-14T22:58:26.529Z,0.67
2022-12-14T23:00:58.609Z,0.65
2022-12-14T23:03:31.348Z,0.63
2022-12-14T23:06:03.868Z,0.59
2022-12-14T23:08:35.787Z,0.59
2022-12-14T23:11:26.578Z,0.61
2022-12-14T23:14:16.963Z,0.62
2022-12-14T23:17:07.508Z,0.61
2022-12-14T23:20:04.256Z,0.61
2022-12-14T23:22:56.129Z,0.60
2022-12-14T23:25:46.695Z,0.60
2022-12-14T23:28:37.887Z,0.60
2022-12-14T23:31:28.489Z,0.52
2022-12-14T23:34:18.953Z,0.52
2022-12-14T23:37:11.078Z,0.54
2022-12-14T23:40:03.356Z,0.52
2022-12-14T23:42:53.902Z,0.56
2022-12-14T23:45:44.559Z,0.49
2022-12-14T23:48:35.019Z,0.50
2022-12-14T23:51:25.471Z,0.46
2022-12-14T23:54:16.150Z,0.34
2022-12-14T23:57:06.450Z,0.41
2022-12-14T23:59:57.111Z,0.37
